createdAt,value
2018-06-27T00:00:14.827Z,13.7
2018-06-27T00:01:05.145Z,13.6
2018-06-27T00:01:55.225Z,13.7
2018-06-27T00:02:45.314Z,13.7
2018-06-27T00:03:35.380Z,13.7
2018-06-27T00:04:24.547Z,13.7
2018-06-27T00:05:15.194Z,13.6
2018-06-27T00:06:05.520Z,13.7
2018-06-27T00:06:55.581Z,13.7
2018-06-27T00:07:45.636Z,13.7
2018-06-27T00:08:35.149Z,13.7
2018-06-27T00:09:25.763Z,13.7
2018-06-27T00:10:15.841Z,13.7
2018-06-27T00:11:05.889Z,13.7
2018-06-27T00:11:55.676Z,13.7
2018-06-27T00:12:45.465Z,13.7
2018-06-27T00:13:35.540Z,13.7
2018-06-27T00:14:25.864Z,13.7
2018-06-27T00:15:15.669Z,13.7
2018-06-27T00:16:06.267Z,13.7
2018-06-27T00:16:55.784Z,13.7
2018-06-27T00:17:45.833Z,13.6
2018-06-27T00:18:36.475Z,13.6
2018-06-27T00:19:26.912Z,13.6
2018-06-27T00:20:16.595Z,13.6
2018-06-27T00:21:06.088Z,13.6
2018-06-27T00:21:56.718Z,13.6
2018-06-27T00:22:46.496Z,13.6
2018-06-27T00:23:36.837Z,13.6
2018-06-27T00:24:26.902Z,13.5
2018-06-27T00:25:16.735Z,13.5
2018-06-27T00:26:06.568Z,13.6
2018-06-27T00:26:56.798Z,13.5
2018-06-27T00:27:47.137Z,13.5
2018-06-27T00:28:36.634Z,13.5
2018-06-27T00:29:27.277Z,13.4
2018-06-27T00:30:17.056Z,13.4
2018-06-27T00:31:07.102Z,13.4
2018-06-27T00:31:57.459Z,13.4
2018-06-27T00:32:47.250Z,13.4
2018-06-27T00:33:37.569Z,13.4
2018-06-27T00:34:27.637Z,13.4
2018-06-27T00:35:17.718Z,13.4
2018-06-27T00:36:07.499Z,13.4
2018-06-27T00:36:57.826Z,13.3
2018-06-27T00:37:47.625Z,13.4
2018-06-27T00:38:37.958Z,13.4
2018-06-27T00:39:28.027Z,13.3
2018-06-27T00:40:18.080Z,13.3
2018-06-27T00:41:07.562Z,13.3
2018-06-27T00:41:58.267Z,13.3
2018-06-27T00:42:48.000Z,13.3
2018-06-27T00:43:38.334Z,13.3
2018-06-27T00:44:28.113Z,13.3
2018-06-27T00:45:18.460Z,13.3
2018-06-27T00:46:08.547Z,13.3
2018-06-27T00:46:58.571Z,13.3
2018-06-27T00:47:48.669Z,13.3
2018-06-27T00:48:38.452Z,13.3
2018-06-27T00:49:28.785Z,13.2
2018-06-27T00:50:18.839Z,13.2
2018-06-27T00:51:08.626Z,13.2
2018-06-27T00:51:58.968Z,13.2
2018-06-27T00:52:48.741Z,13.1
2018-06-27T00:53:38.634Z,13.2
2018-06-27T00:54:29.146Z,13.1
2018-06-27T00:55:18.943Z,13.1
2018-06-27T00:56:09.299Z,13.1
2018-06-27T00:56:59.335Z,13.1
2018-06-27T00:57:49.112Z,13.1
2018-06-27T00:58:39.475Z,13.1
2018-06-27T00:59:29.540Z,13.1
2018-06-27T01:00:19.583Z,13.1
2018-06-27T01:01:09.657Z,13.1
2018-06-27T01:01:59.432Z,13.1
2018-06-27T01:02:49.775Z,13.1
2018-06-27T01:03:39.831Z,13
2018-06-27T01:04:29.900Z,13
2018-06-27T01:05:19.978Z,13
2018-06-27T01:06:09.773Z,13
2018-06-27T01:07:00.108Z,13
2018-06-27T01:07:50.147Z,12.9
2018-06-27T01:08:40.229Z,12.9
2018-06-27T01:09:30.041Z,12.9
2018-06-27T01:10:20.332Z,12.9
2018-06-27T01:11:09.860Z,12.9
2018-06-27T01:12:00.470Z,12.9
2018-06-27T01:12:50.560Z,12.9
2018-06-27T01:13:40.592Z,12.9
2018-06-27T01:14:30.403Z,12.9
2018-06-27T01:15:20.735Z,12.9
2018-06-27T01:16:10.514Z,12.9
2018-06-27T01:17:00.852Z,12.9
2018-06-27T01:17:50.907Z,12.9
2018-06-27T01:18:40.747Z,12.9
2018-06-27T01:19:31.029Z,12.9
2018-06-27T01:20:20.542Z,12.9
2018-06-27T01:21:10.320Z,12.9
2018-06-27T01:22:01.242Z,12.9
2018-06-27T01:22:51.013Z,12.9
2018-06-27T01:23:41.360Z,12.9
2018-06-27T01:24:31.126Z,12.9
2018-06-27T01:25:21.209Z,12.8
2018-06-27T01:26:11.261Z,12.8
2018-06-27T01:27:01.654Z,12.8
2018-06-27T01:27:51.401Z,12.8
2018-06-27T01:28:41.744Z,12.8
2018-06-27T01:29:31.859Z,12.8
2018-06-27T01:30:21.864Z,12.8
2018-06-27T01:31:11.961Z,12.8
2018-06-27T01:32:01.995Z,12.8
2018-06-27T01:32:52.077Z,12.8
2018-06-27T01:33:41.848Z,12.8
2018-06-27T01:34:31.890Z,12.8
2018-06-27T01:35:22.242Z,12.8
2018-06-27T01:36:12.294Z,12.8
2018-06-27T01:37:02.366Z,12.8
2018-06-27T01:37:52.478Z,12.8
2018-06-27T01:38:42.210Z,12.8
2018-06-27T01:39:32.295Z,12.8
2018-06-27T01:40:22.637Z,12.8
2018-06-27T01:41:12.671Z,12.8
2018-06-27T01:42:02.175Z,12.8
2018-06-27T01:42:52.872Z,12.8
2018-06-27T01:43:42.864Z,12.8
2018-06-27T01:44:32.354Z,12.8
2018-06-27T01:45:22.732Z,12.8
2018-06-27T01:46:12.797Z,12.7
2018-06-27T01:47:02.861Z,12.8
2018-06-27T01:47:52.920Z,12.7
2018-06-27T01:48:42.970Z,12.7
2018-06-27T01:49:33.029Z,12.7
2018-06-27T01:50:23.398Z,12.7
2018-06-27T01:51:13.149Z,12.7
2018-06-27T01:52:03.229Z,12.7
2018-06-27T01:52:53.557Z,12.7
2018-06-27T01:53:43.331Z,12.7
2018-06-27T01:54:33.684Z,12.6
2018-06-27T01:55:23.773Z,12.6
2018-06-27T01:56:13.807Z,12.6
2018-06-27T01:57:03.906Z,12.6
2018-06-27T01:57:53.960Z,12.7
2018-06-27T01:58:43.989Z,12.6
2018-06-27T01:59:34.085Z,12.6
2018-06-27T02:00:24.136Z,12.6
2018-06-27T02:01:14.242Z,12.6
2018-06-27T02:02:03.980Z,12.6
2018-06-27T02:02:53.763Z,12.6
2018-06-27T02:03:44.372Z,12.6
2018-06-27T02:04:34.442Z,12.6
2018-06-27T02:05:24.251Z,12.6
2018-06-27T02:06:14.563Z,12.6
2018-06-27T02:07:04.642Z,12.6
2018-06-27T02:07:54.411Z,12.6
2018-06-27T02:08:44.750Z,12.6
2018-06-27T02:09:34.819Z,12.6
2018-06-27T02:10:24.904Z,12.6
2018-06-27T02:11:14.411Z,12.6
2018-06-27T02:12:05.005Z,12.6
2018-06-27T02:12:55.067Z,12.6
2018-06-27T02:13:45.129Z,12.6
2018-06-27T02:14:35.231Z,12.6
2018-06-27T02:15:25.266Z,12.6
2018-06-27T02:16:15.039Z,12.6
2018-06-27T02:17:05.384Z,12.6
2018-06-27T02:17:55.243Z,12.6
2018-06-27T02:18:45.246Z,12.6
2018-06-27T02:19:35.578Z,12.6
2018-06-27T02:20:25.640Z,12.6
2018-06-27T02:21:15.714Z,12.6
2018-06-27T02:22:04.932Z,12.6
2018-06-27T02:22:55.566Z,12.6
2018-06-27T02:23:45.897Z,12.6
2018-06-27T02:24:35.703Z,12.6
2018-06-27T02:25:25.744Z,12.6
2018-06-27T02:26:15.795Z,12.6
2018-06-27T02:27:06.169Z,12.6
2018-06-27T02:27:56.249Z,12.6
2018-06-27T02:28:45.985Z,12.6
2018-06-27T02:29:35.787Z,12.6
2018-06-27T02:30:26.395Z,12.6
2018-06-27T02:31:16.498Z,12.6
2018-06-27T02:32:06.251Z,12.6
2018-06-27T02:32:56.605Z,12.6
2018-06-27T02:33:46.652Z,12.6
2018-06-27T02:34:36.755Z,12.6
2018-06-27T02:35:26.214Z,12.6
2018-06-27T02:36:16.853Z,12.6
2018-06-27T02:37:06.657Z,12.6
2018-06-27T02:37:56.692Z,12.6
2018-06-27T02:38:47.059Z,12.6
2018-06-27T02:39:37.094Z,12.6
2018-06-27T02:40:26.602Z,12.6
2018-06-27T02:41:17.215Z,12.5
2018-06-27T02:42:07.002Z,12.6
2018-06-27T02:42:57.367Z,12.6
2018-06-27T02:43:46.836Z,12.5
2018-06-27T02:44:37.201Z,12.5
2018-06-27T02:45:27.256Z,12.5
2018-06-27T02:46:17.617Z,12.5
2018-06-27T02:47:07.678Z,12.5
2018-06-27T02:47:57.734Z,12.5
2018-06-27T02:48:47.826Z,12.5
2018-06-27T02:49:37.607Z,12.5
2018-06-27T02:50:27.945Z,12.5
2018-06-27T02:51:17.429Z,12.5
2018-06-27T02:52:08.059Z,12.5
2018-06-27T02:52:57.826Z,12.5
2018-06-27T02:53:47.928Z,12.5
2018-06-27T02:54:38.240Z,12.5
2018-06-27T02:55:28.313Z,12.5
2018-06-27T02:56:18.114Z,12.5
2018-06-27T02:57:08.425Z,12.5
2018-06-27T02:57:58.501Z,12.5
2018-06-27T02:58:47.989Z,12.5
2018-06-27T02:59:38.339Z,12.5
2018-06-27T03:00:28.401Z,12.5
2018-06-27T03:01:18.754Z,12.5
2018-06-27T03:02:08.547Z,12.5
2018-06-27T03:02:58.616Z,12.4
2018-06-27T03:03:48.654Z,12.5
2018-06-27T03:04:38.720Z,12.5
2018-06-27T03:05:28.776Z,12.5
2018-06-27T03:06:19.190Z,12.5
2018-06-27T03:07:08.950Z,12.4
2018-06-27T03:07:58.993Z,12.5
2018-06-27T03:08:49.047Z,12.5
2018-06-27T03:09:39.097Z,12.5
2018-06-27T03:10:29.460Z,12.5
2018-06-27T03:11:19.237Z,12.5
2018-06-27T03:12:09.547Z,12.5
2018-06-27T03:12:59.655Z,12.5
2018-06-27T03:13:49.712Z,12.5
2018-06-27T03:14:39.463Z,12.5
2018-06-27T03:15:29.537Z,12.5
2018-06-27T03:16:19.864Z,12.5
2018-06-27T03:17:09.935Z,12.5
2018-06-27T03:18:00.031Z,12.5
2018-06-27T03:18:50.076Z,12.5
2018-06-27T03:19:39.840Z,12.5
2018-06-27T03:20:30.583Z,12.5
2018-06-27T03:21:19.702Z,12.5
2018-06-27T03:22:10.060Z,12.5
2018-06-27T03:23:00.425Z,12.5
2018-06-27T03:23:49.871Z,12.6
2018-06-27T03:24:40.493Z,12.5
2018-06-27T03:25:30.682Z,12.5
2018-06-27T03:26:20.354Z,12.6
2018-06-27T03:27:10.431Z,12.6
2018-06-27T03:28:00.467Z,12.6
2018-06-27T03:28:50.829Z,12.6
2018-06-27T03:29:40.321Z,12.6
2018-06-27T03:30:31.109Z,12.6
2018-06-27T03:31:21.008Z,12.6
2018-06-27T03:32:10.548Z,12.6
2018-06-27T03:33:00.864Z,12.6
2018-06-27T03:33:51.563Z,12.6
2018-06-27T03:34:41.258Z,12.6
2018-06-27T03:35:30.764Z,12.6
2018-06-27T03:36:20.813Z,12.6
2018-06-27T03:37:11.441Z,12.6
2018-06-27T03:38:01.551Z,12.6
2018-06-27T03:38:51.578Z,12.6
2018-06-27T03:39:41.638Z,12.6
2018-06-27T03:40:31.466Z,12.6
2018-06-27T03:41:21.755Z,12.6
2018-06-27T03:42:11.857Z,12.6
2018-06-27T03:43:01.597Z,12.6
2018-06-27T03:43:51.950Z,12.6
2018-06-27T03:44:41.733Z,12.6
2018-06-27T03:45:31.807Z,12.6
2018-06-27T03:46:22.197Z,12.6
2018-06-27T03:47:11.642Z,12.6
2018-06-27T03:48:02.255Z,12.6
2018-06-27T03:48:52.347Z,12.7
2018-06-27T03:49:42.123Z,12.7
2018-06-27T03:50:32.450Z,12.7
2018-06-27T03:51:22.522Z,12.7
2018-06-27T03:52:12.577Z,12.7
2018-06-27T03:53:02.368Z,12.7
2018-06-27T03:53:52.700Z,12.7
2018-06-27T03:54:42.218Z,12.7
2018-06-27T03:55:32.532Z,12.7
2018-06-27T03:56:22.955Z,12.8
2018-06-27T03:57:13.000Z,12.8
2018-06-27T03:58:02.767Z,12.8
2018-06-27T03:58:52.827Z,12.8
2018-06-27T22:30:38.609Z,14
2018-06-27T22:31:28.960Z,14
2018-06-27T22:32:18.998Z,14
2018-06-27T22:33:09.343Z,14
2018-06-27T22:33:59.399Z,14
2018-06-27T22:34:49.487Z,14
2018-06-27T22:35:39.438Z,14
2018-06-27T22:36:29.609Z,14
2018-06-27T22:37:19.399Z,14
2018-06-27T22:38:09.480Z,14
2018-06-27T22:38:59.790Z,14
2018-06-27T22:39:49.864Z,14
2018-06-27T22:40:39.629Z,14
2018-06-27T22:41:30.413Z,14
2018-06-27T22:42:20.062Z,14
2018-06-27T22:43:09.827Z,14
2018-06-27T22:44:00.198Z,14
2018-06-27T22:44:50.447Z,14
2018-06-27T22:45:40.023Z,14
2018-06-27T22:46:30.368Z,14
2018-06-27T22:47:20.194Z,14
2018-06-27T22:48:10.205Z,14
2018-06-27T22:49:03.369Z,13.9
2018-06-27T22:49:54.265Z,14
2018-06-27T22:50:44.322Z,14
2018-06-27T22:51:34.134Z,14
2018-06-27T22:52:24.501Z,13.9
2018-06-27T22:53:14.593Z,13.9
2018-06-27T22:54:04.569Z,13.9
2018-06-27T22:54:54.374Z,13.9
2018-06-27T22:55:44.712Z,13.9
2018-06-27T22:56:34.754Z,13.9
2018-06-27T22:57:24.824Z,13.9
2018-06-27T22:58:14.902Z,13.9
2018-06-27T22:59:05.193Z,13.9
2018-06-27T22:59:55.026Z,13.9
2018-06-27T23:00:44.811Z,13.9
2018-06-27T23:01:35.133Z,13.9
2018-06-27T23:02:25.247Z,13.9
2018-06-27T23:03:14.986Z,13.9
2018-06-27T23:04:05.358Z,13.9
2018-06-27T23:04:55.408Z,13.9
2018-06-27T23:05:45.467Z,13.9
2018-06-27T23:06:35.253Z,13.9
2018-06-27T23:07:25.583Z,13.9
2018-06-27T23:08:15.648Z,13.9
2018-06-27T23:09:19.803Z,13.9
2018-06-27T23:09:55.529Z,13.9
2018-06-27T23:10:45.858Z,13.9
2018-06-27T23:11:35.919Z,13.9
2018-06-27T23:12:25.402Z,13.9
2018-06-27T23:13:16.038Z,13.9
2018-06-27T23:14:05.819Z,13.8
2018-06-27T23:14:55.565Z,13.9
2018-06-27T23:15:45.680Z,13.8
2018-06-27T23:16:36.273Z,13.8
2018-06-27T23:17:26.342Z,13.8
2018-06-27T23:18:16.624Z,13.8
2018-06-27T23:19:06.469Z,13.8
2018-06-27T23:19:56.513Z,13.8
2018-06-27T23:20:46.837Z,13.8
2018-06-27T23:21:36.655Z,13.8
2018-06-27T23:22:26.440Z,13.8
2018-06-27T23:23:16.832Z,13.8
2018-06-27T23:24:06.855Z,13.8
2018-06-27T23:24:56.619Z,13.8
2018-06-27T23:25:46.949Z,13.8
2018-06-27T23:26:37.019Z,13.8
2018-06-27T23:27:27.304Z,13.8
2018-06-27T23:28:17.152Z,13.8
2018-06-27T23:29:07.237Z,13.8
2018-06-27T23:29:57.314Z,13.8
2018-06-27T23:30:47.322Z,13.8
